Медовое

Карта отелей и гостиниц, располагающихся рядом с аэропортом Медовое :

Медовое
Калининград
Калининградская область 54° 32' 27.6684" N, 20° 20' 10.6908" E
Код аэродрома ИКАО
UMKE
Код аэродрома RU
УМКЕ
Координаты
N54.54102° E020.33630°
Превышение над уровнем моря
26
Основная полоса
05/23
Курс магнитный
047,1/227,1
Длина основной ВПП
1000
Ширина основной ВПП
40
Покрытие основной ВПП
Нетвёрдое (грунт)
Освещение ВПП
Нет
Тип: 
Аэродром
Класс аэродрома: 
Принадлежность: 
АОН
Статус: 
Действующий
Сайт: 
E-mail аэродрома: 
west-aero@bk.ru
Страна: 
Россия
Регион: 
Калининградская область
Город: 
Калининград
Дополнительная информация: 
Владелец ПП: нет данных. АНППП зарегистрирован в СЗМТУ ВТ ФАВТ.

Найти трансфер

С помощью этой формы Вы можете найти трансфер из аэропорта Медовое в город, аэропорт или вокзал:

Карта места

Javascript is required to view this map.

Погода в аэропортах:

Авиационная погода в Ивало

Регион: 
Погода METAR: 
EFIV 281320Z AUTO 00000KT 9999 -SHSN OVC030 M22/M25 Q1009
Время наблюдения
2021-11-28T13:20:00Z
Температура C
-22.0
Точка росы
-25.0
Направление ветра
0
Скорость ветра (узлы)
0
Метео видимость
6.21
Явления погоды
-SHSN
Условия полета
MVFR

Авиационная погода в Сыктывкаре

Регион: 
Погода METAR: 
UUYY 281300Z 18006MPS 9000 -SHSN BKN011 OVC020CB M01/M02 Q1002 R18/550535 NOSIG RMK QFE743/0991
Время наблюдения
2021-11-28T13:00:00Z
Температура C
-1.0
Точка росы
-2.0
Направление ветра
180
Скорость ветра (узлы)
12
Метео видимость
5.59
Явления погоды
-SHSN
Условия полета
MVFR
Аэропорт подробнее: 

Авиационная погода в Борисполе

Регион: 
Погода METAR: 
UKBB 281300Z 12005MPS 0750 0500W R36R/1000D R36L/0900D PRFG OVC001 04/04 Q1003 TEMPO 0300 FG VV001
Время наблюдения
2021-11-28T13:00:00Z
Температура C
4.0
Точка росы
4.0
Направление ветра
120
Скорость ветра (узлы)
10
Метео видимость
0.47
Явления погоды
PRFG
Условия полета
LIFR
Аэропорт подробнее: 

Авиационная погода в аэропорту Байкал

Регион: 
Погода METAR: 
UIUU 281300Z 22002MPS 6000 2200NE FU NSC M14/M18 Q1027 R26/820550 NOSIG RMK QFE725/0967
Время наблюдения
2021-11-28T13:00:00Z
Температура C
-14.0
Точка росы
-18.0
Направление ветра
220
Скорость ветра (узлы)
4
Метео видимость
3.73
Явления погоды
FU
Условия полета
MVFR
Аэропорт подробнее: